createdAt,value
2019-04-14T00:02:46.964Z,8.73
2019-04-14T00:05:16.904Z,8.85
2019-04-14T00:08:32.705Z,8.99
2019-04-14T00:11:02.287Z,9.03
2019-04-14T00:13:32.726Z,9.05
2019-04-14T00:16:03.158Z,9.06
2019-04-14T00:18:33.723Z,9.01
2019-04-14T00:21:04.394Z,9.08
2019-04-14T00:23:34.777Z,9.11
2019-04-14T00:26:25.464Z,9.13
2019-04-14T00:28:55.610Z,9.15
2019-04-14T00:31:26.184Z,9.07
2019-04-14T00:33:58.583Z,9.09
2019-04-14T00:36:48.228Z,9.06
2019-04-14T00:39:20.704Z,8.94
2019-04-14T00:42:15.050Z,8.97
2019-04-14T00:44:51.740Z,8.95
2019-04-14T00:47:28.914Z,8.89
2019-04-14T00:49:59.400Z,8.86
2019-04-14T00:52:29.813Z,8.93
2019-04-14T00:54:59.424Z,8.86
2019-04-14T00:57:29.103Z,8.83
2019-04-14T00:59:59.534Z,8.76
2019-04-14T01:02:29.694Z,8.76
2019-04-14T01:05:00.152Z,8.76
2019-04-14T01:07:30.524Z,8.77
2019-04-14T01:10:00.219Z,8.76
2019-04-14T01:12:30.032Z,8.83
2019-04-14T01:15:00.622Z,8.91
2019-04-14T01:17:30.897Z,8.87
2019-04-14T01:20:01.436Z,8.75
2019-04-14T01:22:31.469Z,8.69
2019-04-14T01:25:02.287Z,8.74
2019-04-14T01:27:32.069Z,8.85
2019-04-14T01:30:02.674Z,8.92
2019-04-14T01:32:32.654Z,8.99
2019-04-14T01:35:03.176Z,9.02
2019-04-14T01:37:33.310Z,8.93
2019-04-14T01:40:03.313Z,9.03
2019-04-14T01:42:33.439Z,9.05
2019-04-14T01:45:03.618Z,9.05
2019-04-14T01:47:33.449Z,9.13
2019-04-14T01:50:03.797Z,9.18
2019-04-14T01:52:42.215Z,9.21
2019-04-14T01:55:39.925Z,9.24
2019-04-14T01:58:12.292Z,9.25
2019-04-14T02:00:55.387Z,9.22
2019-04-14T02:03:25.944Z,9.24
2019-04-14T02:05:56.070Z,9.24
2019-04-14T02:08:26.268Z,9.28
2019-04-14T02:10:56.565Z,9.32
2019-04-14T02:13:26.802Z,9.34
2019-04-14T02:15:57.339Z,9.38
2019-04-14T02:18:27.265Z,9.36
2019-04-14T02:20:57.887Z,9.33
2019-04-14T02:23:27.980Z,9.34
2019-04-14T02:25:58.001Z,9.36
2019-04-14T02:28:28.780Z,9.43
2019-04-14T02:31:11.990Z,9.34
2019-04-14T02:33:50.555Z,9.31
2019-04-14T02:39:15.929Z,9.38
2019-04-14T02:44:04.913Z,9.40
2019-04-14T02:46:41.952Z,9.40
2019-04-14T02:49:22.700Z,9.36
2019-04-14T02:51:50.246Z,9.33
2019-04-14T02:54:04.718Z,9.29
2019-04-14T02:56:35.842Z,9.31
2019-04-14T02:59:07.783Z,9.35
2019-04-14T03:02:09.639Z,9.35
2019-04-14T03:04:12.962Z,9.37
2019-04-14T03:06:41.631Z,9.34
2019-04-14T03:11:47.110Z,9.37
2019-04-14T03:14:15.194Z,9.32
2019-04-14T03:17:21.912Z,9.31
2019-04-14T03:20:15.281Z,9.35
2019-04-14T03:25:30.122Z,9.35
2019-04-14T03:28:38.519Z,9.37
2019-04-14T03:31:37.541Z,9.39
2019-04-14T03:38:53.387Z,9.33
2019-04-14T03:44:07.355Z,9.44
2019-04-14T03:51:26.235Z,9.36
2019-04-14T03:54:03.632Z,9.41
2019-04-14T03:56:37.547Z,9.49
2019-04-14T03:59:08.357Z,9.43
2019-04-14T04:01:39.102Z,9.45
2019-04-14T04:04:09.658Z,9.49
2019-04-14T04:06:39.924Z,9.44
2019-04-14T04:09:10.454Z,9.45
2019-04-14T04:11:41.113Z,9.49
2019-04-14T04:14:11.763Z,9.39
2019-04-14T04:16:59.507Z,9.45
2019-04-14T04:19:47.081Z,9.39
2019-04-14T04:22:33.093Z,9.38
2019-04-14T04:25:24.768Z,9.37
2019-04-14T04:28:23.211Z,9.38
2019-04-14T04:30:58.093Z,9.44
2019-04-14T04:33:50.095Z,9.51
2019-04-14T04:36:27.044Z,9.61
2019-04-14T04:39:15.472Z,9.64
2019-04-14T04:41:45.072Z,9.69
2019-04-14T04:44:15.799Z,10.09
2019-04-14T04:46:45.971Z,10.21
2019-04-14T04:49:21.066Z,10.44
2019-04-14T04:51:46.732Z,10.87
2019-04-14T04:54:16.829Z,11.35
2019-04-14T04:56:47.238Z,11.95
2019-04-14T04:59:17.095Z,12.19
2019-04-14T05:01:47.356Z,12.11
2019-04-14T05:04:17.639Z,12.12
2019-04-14T05:07:05.573Z,12.18
2019-04-14T05:09:57.743Z,12.32
2019-04-14T05:12:50.178Z,12.15
2019-04-14T05:15:48.912Z,12.40
2019-04-14T05:18:23.028Z,12.61
2019-04-14T05:20:53.216Z,12.78
2019-04-14T05:23:23.467Z,12.71
2019-04-14T05:25:53.884Z,12.67
2019-04-14T05:28:24.503Z,12.28
2019-04-14T05:30:54.691Z,12.03
2019-04-14T05:33:25.046Z,11.92
2019-04-14T05:35:55.296Z,11.78
2019-04-14T05:38:26.181Z,11.77
2019-04-14T05:40:56.285Z,11.76
2019-04-14T05:43:36.775Z,11.88
2019-04-14T05:45:56.996Z,11.98
2019-04-14T05:48:27.223Z,11.96
2019-04-14T05:50:59.896Z,11.74
2019-04-14T05:53:30.446Z,10.83
2019-04-14T05:56:01.325Z,11.13
2019-04-14T05:58:31.780Z,11.37
2019-04-14T06:01:02.421Z,11.42
2019-04-14T06:03:32.183Z,11.41
2019-04-14T06:06:01.673Z,11.17
2019-04-14T06:08:31.195Z,11.28
2019-04-14T06:11:00.739Z,11.15
2019-04-14T06:13:30.254Z,11.26
2019-04-14T06:15:59.812Z,11.19
2019-04-14T06:18:29.289Z,11.35
2019-04-14T06:20:58.767Z,10.96
2019-04-14T06:23:28.223Z,11.17
2019-04-14T06:25:57.717Z,11.03
2019-04-14T06:28:27.197Z,11.29
2019-04-14T06:31:16.444Z,11.48
2019-04-14T06:33:51.674Z,11.47
2019-04-14T06:36:45.221Z,11.41
2019-04-14T06:39:18.402Z,11.29
2019-04-14T06:41:47.854Z,10.98
2019-04-14T06:44:17.381Z,10.94
2019-04-14T06:46:46.843Z,11.20
2019-04-14T06:49:16.378Z,11.42
2019-04-14T06:51:45.858Z,11.48
2019-04-14T06:54:15.351Z,11.65
2019-04-14T06:56:44.776Z,11.47
2019-04-14T06:59:14.312Z,11.51
2019-04-14T07:01:43.831Z,11.73
2019-04-14T07:04:13.343Z,11.89
2019-04-14T07:06:42.889Z,12.03
2019-04-14T07:09:12.372Z,12.03
2019-04-14T07:11:41.853Z,11.91
2019-04-14T07:14:11.320Z,11.38
2019-04-14T07:16:40.841Z,11.07
2019-04-14T07:19:10.358Z,11.15
2019-04-14T07:21:39.909Z,11.26
2019-04-14T07:24:09.470Z,11.41
2019-04-14T07:26:38.997Z,11.64
2019-04-14T07:29:08.457Z,11.43
2019-04-14T07:32:09.297Z,11.53
2019-04-14T07:34:48.708Z,11.59
2019-04-14T07:37:35.755Z,11.66
2019-04-14T07:40:22.781Z,11.88
2019-04-14T07:42:57.779Z,12.05
2019-04-14T07:45:55.528Z,12.22
2019-04-14T07:48:38.633Z,12.37
2019-04-14T07:51:32.894Z,12.48
2019-04-14T07:54:10.297Z,12.40
2019-04-14T07:57:13.803Z,12.21
2019-04-14T08:00:20.434Z,11.97
2019-04-14T08:02:54.676Z,12.12
2019-04-14T08:05:28.833Z,12.03
2019-04-14T08:07:58.345Z,12.30
2019-04-14T08:10:27.789Z,12.43
2019-04-14T08:12:57.319Z,12.61
2019-04-14T08:15:26.839Z,12.77
2019-04-14T08:17:56.354Z,12.25
2019-04-14T08:20:27.576Z,12.11
2019-04-14T08:22:57.898Z,12.30
2019-04-14T08:25:27.584Z,12.62
2019-04-14T08:27:57.106Z,12.79
2019-04-14T08:30:26.608Z,12.48
2019-04-14T08:32:56.090Z,12.30
2019-04-14T08:35:25.684Z,12.17
2019-04-14T08:37:55.191Z,11.85
2019-04-14T08:40:24.694Z,11.48
2019-04-14T08:43:00.299Z,11.60
2019-04-14T08:48:49.627Z,11.89
2019-04-14T08:51:26.926Z,11.97
2019-04-14T08:54:15.323Z,11.78
2019-04-14T08:57:03.751Z,11.89
2019-04-14T08:59:48.988Z,12.21
2019-04-14T09:02:40.641Z,12.31
2019-04-14T09:05:28.142Z,12.42
2019-04-14T09:08:16.537Z,12.64
2019-04-14T09:10:48.553Z,12.95
2019-04-14T09:13:18.026Z,13.11
2019-04-14T09:15:47.549Z,13.11
2019-04-14T09:18:17.065Z,12.84
2019-04-14T09:20:52.519Z,12.75
2019-04-14T09:23:17.788Z,12.85
2019-04-14T09:25:47.315Z,13.37
2019-04-14T09:28:16.825Z,13.53
2019-04-14T09:30:46.328Z,13.68
2019-04-14T09:33:15.793Z,13.61
2019-04-14T09:35:45.283Z,13.41
2019-04-14T09:38:14.743Z,12.90
2019-04-14T09:40:44.243Z,12.55
2019-04-14T09:43:13.749Z,12.65
2019-04-14T09:45:43.278Z,12.64
2019-04-14T09:48:12.766Z,12.51
2019-04-14T09:50:42.255Z,12.87
2019-04-14T09:53:11.701Z,13.39
2019-04-14T09:55:41.196Z,13.69
2019-04-14T09:58:10.699Z,13.92
2019-04-14T10:00:42.127Z,13.92
2019-04-14T10:03:11.622Z,13.84
2019-04-14T10:05:41.112Z,14.06
2019-04-14T10:08:10.697Z,14.21
2019-04-14T10:10:40.226Z,14.19
2019-04-14T10:13:09.748Z,13.72
2019-04-14T10:15:39.254Z,13.47
2019-04-14T10:18:08.733Z,13.33
2019-04-14T10:20:38.285Z,13.32
2019-04-14T10:23:07.730Z,13.39
2019-04-14T10:25:37.361Z,13.48
2019-04-14T10:28:06.901Z,13.21
2019-04-14T10:30:36.367Z,13.42
2019-04-14T10:33:05.897Z,13.54
2019-04-14T10:35:35.362Z,13.46
2019-04-14T10:38:04.916Z,13.07
2019-04-14T10:40:34.899Z,12.91
2019-04-14T10:43:04.381Z,13.08
2019-04-14T10:45:33.809Z,12.97
2019-04-14T10:48:03.283Z,12.82
2019-04-14T10:50:32.791Z,12.87
2019-04-14T10:53:02.272Z,12.74
2019-04-14T10:55:31.777Z,12.62
2019-04-14T10:58:01.269Z,12.54
2019-04-14T11:00:30.695Z,12.64
2019-04-14T11:03:00.196Z,12.65
2019-04-14T11:05:33.425Z,12.77
2019-04-14T11:08:02.920Z,12.62
2019-04-14T11:10:32.448Z,12.65
2019-04-14T11:13:01.954Z,12.71
2019-04-14T11:15:31.451Z,12.69
2019-04-14T11:18:00.941Z,12.37
2019-04-14T11:20:30.406Z,12.22
2019-04-14T11:23:03.415Z,12.28
2019-04-14T11:25:31.073Z,12.45
2019-04-14T11:28:00.557Z,12.50
2019-04-14T11:30:30.091Z,12.51
2019-04-14T11:33:10.973Z,12.60
2019-04-14T11:36:05.422Z,12.64
2019-04-14T11:38:38.543Z,12.78
2019-04-14T11:41:11.347Z,12.71
2019-04-14T11:43:40.821Z,12.70
2019-04-14T11:46:10.290Z,12.43
2019-04-14T11:48:39.753Z,12.83
2019-04-14T11:51:09.229Z,13.14
2019-04-14T11:53:38.804Z,13.23
2019-04-14T11:56:08.492Z,13.12
2019-04-14T11:58:37.952Z,12.93
2019-04-14T12:01:35.895Z,12.75
2019-04-14T12:04:22.934Z,12.74
2019-04-14T12:07:09.859Z,13.12
2019-04-14T12:09:42.774Z,13.25
2019-04-14T12:12:12.281Z,13.31
2019-04-14T12:14:41.778Z,13.23
2019-04-14T12:17:11.244Z,13.27
2019-04-14T12:19:40.746Z,13.34
2019-04-14T12:22:10.248Z,13.06
2019-04-14T12:24:39.747Z,12.76
2019-04-14T12:27:09.307Z,12.49
2019-04-14T12:29:39.067Z,12.62
2019-04-14T12:32:08.961Z,12.64
2019-04-14T12:34:38.438Z,12.58
2019-04-14T12:37:07.930Z,12.78
2019-04-14T12:39:37.380Z,12.95
2019-04-14T12:42:32.064Z,12.89
2019-04-14T12:45:13.639Z,12.86
2019-04-14T12:47:51.822Z,12.97
2019-04-14T12:50:27.640Z,13.23
2019-04-14T12:52:57.459Z,12.94
2019-04-14T12:55:27.199Z,13.16
2019-04-14T12:57:59.462Z,13.13
2019-04-14T13:00:44.412Z,13.33
2019-04-14T13:03:15.307Z,13.59
2019-04-14T13:05:44.720Z,13.66
2019-04-14T13:08:14.238Z,13.80
2019-04-14T13:10:43.748Z,13.79
2019-04-14T13:13:13.267Z,13.69
2019-04-14T13:15:42.830Z,13.20
2019-04-14T13:18:12.336Z,13.23
2019-04-14T13:20:41.847Z,13.15
2019-04-14T13:23:11.372Z,13.13
2019-04-14T13:25:40.912Z,13.11
2019-04-14T13:28:10.398Z,13.00
2019-04-14T13:30:42.595Z,12.91
2019-04-14T13:33:12.104Z,13.00
2019-04-14T13:35:41.619Z,13.13
2019-04-14T13:38:11.109Z,12.64
2019-04-14T13:40:40.643Z,12.38
2019-04-14T13:43:10.202Z,12.31
2019-04-14T13:45:39.677Z,12.06
2019-04-14T13:48:09.217Z,11.84
2019-04-14T13:50:38.668Z,11.88
2019-04-14T13:53:08.267Z,11.98
2019-04-14T13:55:37.783Z,11.88
2019-04-14T13:58:07.251Z,11.86
2019-04-14T14:00:36.845Z,11.94
2019-04-14T14:03:06.352Z,12.05
2019-04-14T14:05:35.842Z,12.14
2019-04-14T14:08:05.327Z,12.04
2019-04-14T14:10:34.826Z,11.92
2019-04-14T14:13:22.654Z,11.84
2019-04-14T14:16:20.217Z,11.90
2019-04-14T14:19:08.629Z,11.94
2019-04-14T14:21:51.826Z,12.05
2019-04-14T14:24:42.924Z,12.03
2019-04-14T14:27:12.462Z,12.10
2019-04-14T14:29:41.944Z,12.23
2019-04-14T14:32:26.650Z,12.18
2019-04-14T14:34:56.082Z,12.22
2019-04-14T14:37:25.604Z,12.18
2019-04-14T14:39:55.095Z,12.11
2019-04-14T14:42:24.609Z,12.26
2019-04-14T14:45:15.834Z,12.26
2019-04-14T14:47:52.834Z,12.37
2019-04-14T14:50:33.671Z,12.37
2019-04-14T14:53:11.891Z,12.25
2019-04-14T14:55:34.388Z,12.19
2019-04-14T14:58:03.895Z,11.79
2019-04-14T15:00:34.727Z,11.60
2019-04-14T15:03:04.343Z,11.72
2019-04-14T15:05:33.778Z,11.69
2019-04-14T15:08:03.683Z,11.47
2019-04-14T15:10:33.156Z,11.50
2019-04-14T15:13:02.693Z,11.56
2019-04-14T15:15:32.092Z,11.52
2019-04-14T15:18:01.594Z,11.40
2019-04-14T15:20:31.059Z,11.32
2019-04-14T15:23:00.554Z,11.17
2019-04-14T15:25:30.047Z,11.16
2019-04-14T15:27:59.540Z,11.19
2019-04-14T15:30:29.039Z,11.21
2019-04-14T15:32:58.632Z,11.23
2019-04-14T15:35:28.113Z,11.49
2019-04-14T15:37:57.662Z,11.08
2019-04-14T15:40:27.144Z,11.08
2019-04-14T15:42:57.078Z,11.09
2019-04-14T15:45:26.580Z,11.19
2019-04-14T15:47:56.082Z,11.16
2019-04-14T15:50:25.568Z,11.20
2019-04-14T15:52:55.089Z,11.16
2019-04-14T15:55:24.587Z,11.25
2019-04-14T15:58:11.779Z,11.17
2019-04-14T16:00:59.042Z,11.18
2019-04-14T16:03:42.927Z,11.15
2019-04-14T16:06:40.941Z,11.01
2019-04-14T16:09:32.387Z,11.11
2019-04-14T16:12:19.535Z,11.13
2019-04-14T16:15:14.439Z,11.17
2019-04-14T16:18:10.535Z,11.05
2019-04-14T16:20:42.119Z,11.04
2019-04-14T16:23:11.614Z,11.00
2019-04-14T16:26:09.161Z,10.94
2019-04-14T16:28:48.140Z,10.82
2019-04-14T16:31:55.426Z,10.60
2019-04-14T16:34:28.025Z,10.45
2019-04-14T16:36:57.875Z,10.52
2019-04-14T16:39:27.388Z,10.46
2019-04-14T16:41:56.905Z,10.66
2019-04-14T16:44:26.385Z,10.66
2019-04-14T16:46:55.852Z,10.56
2019-04-14T16:49:25.409Z,10.57
2019-04-14T16:52:00.012Z,10.57
2019-04-14T16:54:43.415Z,10.57
2019-04-14T16:57:44.580Z,10.41
2019-04-14T17:00:18.146Z,10.37
2019-04-14T17:02:50.073Z,10.28
2019-04-14T17:05:18.913Z,10.35
2019-04-14T17:07:48.428Z,10.48
2019-04-14T17:10:17.926Z,10.40
2019-04-14T17:12:47.425Z,10.06
2019-04-14T17:15:35.817Z,10.14
2019-04-14T17:18:14.827Z,9.94
2019-04-14T17:21:02.277Z,9.82
2019-04-14T17:23:39.156Z,9.66
2019-04-14T17:26:30.671Z,9.66
2019-04-14T17:29:19.058Z,9.65
2019-04-14T17:32:22.660Z,9.67
2019-04-14T17:35:29.222Z,9.75
2019-04-14T17:38:02.820Z,9.81
2019-04-14T17:40:57.598Z,9.78
2019-04-14T17:43:46.006Z,9.99
2019-04-14T17:46:46.465Z,10.03
2019-04-14T17:49:38.406Z,10.16
2019-04-14T17:52:25.426Z,10.18
2019-04-14T17:55:17.916Z,10.18
2019-04-14T17:58:15.549Z,10.33
2019-04-14T18:00:53.750Z,10.34
2019-04-14T18:03:57.619Z,10.18
2019-04-14T18:06:37.141Z,10.13
2019-04-14T18:09:29.523Z,10.22
2019-04-14T18:12:23.918Z,10.22
2019-04-14T18:15:11.850Z,10.28
2019-04-14T18:17:59.454Z,10.38
2019-04-14T18:20:36.291Z,10.46
2019-04-14T18:23:05.813Z,10.46
2019-04-14T18:25:35.776Z,10.41
2019-04-14T18:28:26.434Z,10.48
2019-04-14T18:31:08.498Z,10.50
2019-04-14T18:33:55.708Z,10.48
2019-04-14T18:36:31.991Z,10.48
2019-04-14T18:39:20.410Z,10.35
2019-04-14T18:42:11.933Z,10.40
2019-04-14T18:44:54.299Z,10.44
2019-04-14T18:47:27.133Z,10.42
2019-04-14T18:50:15.537Z,10.30
2019-04-14T18:52:55.979Z,10.26
2019-04-14T18:55:32.460Z,10.19
2019-04-14T18:58:10.334Z,10.16
2019-04-14T19:00:43.990Z,10.14
2019-04-14T19:03:13.498Z,10.17
2019-04-14T19:05:42.941Z,10.21
2019-04-14T19:08:12.461Z,10.21
2019-04-14T19:10:44.059Z,10.20
2019-04-14T19:13:26.631Z,10.25
2019-04-14T19:16:01.036Z,10.19
2019-04-14T19:18:39.888Z,10.19
2019-04-14T19:21:12.044Z,10.17
2019-04-14T19:23:41.511Z,10.28
2019-04-14T19:26:10.978Z,10.36
2019-04-14T19:28:40.502Z,10.35
2019-04-14T19:31:10.009Z,10.39
2019-04-14T19:33:39.482Z,10.42
2019-04-14T19:36:09.328Z,10.46
2019-04-14T19:38:38.827Z,10.24
2019-04-14T19:41:08.659Z,10.36
2019-04-14T19:43:38.138Z,10.25
2019-04-14T19:46:07.613Z,10.38
2019-04-14T19:48:37.056Z,10.29
2019-04-14T19:51:06.608Z,10.36
2019-04-14T19:53:36.085Z,10.47
2019-04-14T19:56:05.620Z,10.52
2019-04-14T19:58:35.082Z,10.51
2019-04-14T20:01:07.190Z,10.57
2019-04-14T20:03:36.258Z,10.50
2019-04-14T20:06:05.718Z,10.58
2019-04-14T20:08:35.209Z,10.54
2019-04-14T20:11:04.916Z,10.51
2019-04-14T20:13:39.103Z,10.49
2019-04-14T20:16:26.383Z,10.40
2019-04-14T20:19:10.387Z,10.47
2019-04-14T20:21:54.191Z,10.50
2019-04-14T20:24:32.734Z,10.42
2019-04-14T20:27:09.278Z,10.52
2019-04-14T20:29:41.856Z,10.52
2019-04-14T20:32:14.183Z,10.30
2019-04-14T20:34:43.683Z,10.30
2019-04-14T20:37:13.636Z,10.29
2019-04-14T20:39:43.124Z,10.25
2019-04-14T20:42:12.692Z,10.27
2019-04-14T20:44:42.187Z,10.23
2019-04-14T20:47:11.739Z,10.11
2019-04-14T20:49:41.243Z,10.08
2019-04-14T20:52:10.808Z,10.18
2019-04-14T20:54:40.318Z,10.26
2019-04-14T20:57:09.796Z,10.23
2019-04-14T20:59:39.252Z,10.31
2019-04-14T21:02:33.442Z,10.35
2019-04-14T21:05:17.905Z,10.35
2019-04-14T21:08:09.499Z,10.41
2019-04-14T21:10:43.419Z,10.43
2019-04-14T21:13:30.712Z,10.43
2019-04-14T21:16:12.789Z,10.46
2019-04-14T21:18:53.110Z,10.46
2019-04-14T21:21:37.355Z,10.43
2019-04-14T21:24:17.132Z,10.37
2019-04-14T21:26:58.114Z,10.24
2019-04-14T21:29:55.535Z,10.20
2019-04-14T21:32:28.952Z,10.16
2019-04-14T21:35:14.246Z,10.13
2019-04-14T21:38:01.776Z,10.15
2019-04-14T21:41:02.522Z,10.15
2019-04-14T21:43:32.051Z,10.12
2019-04-14T21:46:01.531Z,10.05
2019-04-14T21:48:31.035Z,10.01
2019-04-14T21:51:00.527Z,10.03
2019-04-14T21:53:29.965Z,10.09
2019-04-14T21:56:12.479Z,9.92
2019-04-14T21:58:39.739Z,9.86
2019-04-14T22:01:55.158Z,9.79
2019-04-14T22:04:53.551Z,9.85
2019-04-14T22:07:46.043Z,9.85
2019-04-14T22:10:22.558Z,9.94
2019-04-14T22:12:52.109Z,9.86
2019-04-14T22:15:21.606Z,9.88
2019-04-14T22:17:51.100Z,10.00
2019-04-14T22:20:20.567Z,9.99
2019-04-14T22:22:50.089Z,9.89
2019-04-14T22:25:19.522Z,9.89
2019-04-14T22:27:49.120Z,9.92
2019-04-14T22:30:18.711Z,9.90
2019-04-14T22:32:48.204Z,9.94
2019-04-14T22:35:17.699Z,9.96
2019-04-14T22:37:47.178Z,9.99
2019-04-14T22:40:16.745Z,9.99
2019-04-14T22:42:46.236Z,10.03
2019-04-14T22:45:15.866Z,10.10
2019-04-14T22:47:45.333Z,10.08
2019-04-14T22:50:14.868Z,10.06
2019-04-14T22:52:44.413Z,9.85
2019-04-14T22:55:14.009Z,9.77
2019-04-14T22:57:43.498Z,9.81
2019-04-14T23:00:18.774Z,9.74
2019-04-14T23:03:01.870Z,9.81
2019-04-14T23:06:08.441Z,9.86
2019-04-14T23:08:42.098Z,9.87
2019-04-14T23:11:30.529Z,9.69
2019-04-14T23:14:34.000Z,9.68
2019-04-14T23:17:34.579Z,9.71
2019-04-14T23:20:26.803Z,9.63
2019-04-14T23:23:18.060Z,9.61
2019-04-14T23:25:47.545Z,9.65
2019-04-14T23:28:17.025Z,9.58
2019-04-14T23:30:46.502Z,9.63
2019-04-14T23:33:15.973Z,9.50
2019-04-14T23:35:45.446Z,9.54
2019-04-14T23:38:14.917Z,9.46
2019-04-14T23:40:44.433Z,9.64
2019-04-14T23:43:13.906Z,9.68
2019-04-14T23:45:43.401Z,9.70
2019-04-14T23:48:12.864Z,9.65
2019-04-14T23:50:42.338Z,9.58
2019-04-14T23:53:11.845Z,9.55
2019-04-14T23:55:41.410Z,9.57
2019-04-14T23:58:10.912Z,9.41
